Tampa, Florida
Traffic Map
Current Weather Conditions
Tampa, Florida
Few Clouds
Few Clouds

Feels Like: 7°
Wind Chill: Ceiling: Unl
Heat Index: Visibility: 10mi
Dew Point: -1° Wind: 9mph
Humidity: 50% Direction: 60° (ENE)
Pressure: 30.36in Gusts: 0mph
Raw Report DataKTPA 281453Z 06008KT 10SM FEW100 09/M01 A3036 RMK AO2 SLP281 T00941006 51012
Traffic Incident Summary
Active as of:
Severity:
Category:
InformationThere was an issue retrieving the traffic information for this location. Please try a different location or try again shortly.
Advertisements
Track Severe Weather on mobile